Time;durP1;ratioP1;P1;durP2;ratioP2;P2;SDS_P1;SDS_P2;PMS_P1;PMS_P2;Temp;Humidity;BMP_temperature;BMP_pressure;BME280_temperature;BME280_humidity;BME280_pressure;Samples;Min_cycle;Max_cycle;Signal;HPM_P1;HPM_P2
2023/05/18 00:01:18;;;;;;;;;;;22.10;85.90;;;;;;5079759;28;19908;-52
2023/05/18 00:03:44;;;;;;;;;;;22.00;86.00;;;;;;5080127;28;19909;-53
2023/05/18 00:06:10;;;;;;;;;;;22.00;86.20;;;;;;5095704;28;19935;-53
2023/05/18 00:08:36;;;;;;;;;;;21.90;86.40;;;;;;5078851;28;20348;-55
2023/05/18 00:11:02;;;;;;;;;;;21.90;86.50;;;;;;5076166;28;19908;-50
2023/05/18 00:13:28;;;;;;;;;;;21.80;86.70;;;;;;5076472;28;19912;-53
2023/05/18 00:15:54;;;;;;;;;;;21.80;86.80;;;;;;5076538;28;19920;-53
2023/05/18 00:18:22;;;;;;;;;;;21.70;86.90;;;;;;5076752;28;20284;-51
2023/05/18 00:20:49;;;;;;;;;;;21.60;87.00;;;;;;5076691;28;19938;-53
2023/05/18 00:23:15;;;;;;;;;;;21.60;87.10;;;;;;5076711;28;19956;-53
2023/05/18 00:25:40;;;;;;;;;;;21.50;87.20;;;;;;5076304;28;19909;-52
2023/05/18 00:28:06;;;;;;;;;;;21.50;87.30;;;;;;5076280;28;19909;-53
2023/05/18 00:30:31;;;;;;;;;;;21.50;87.40;;;;;;5076845;28;19909;-55
2023/05/18 00:32:57;;;;;;;;;;;21.50;87.40;;;;;;5076716;28;19909;-55
2023/05/18 00:35:22;;;;;;;;;;;21.60;87.40;;;;;;5076203;28;20003;-52
2023/05/18 00:37:48;;;;;;;;;;;21.70;87.10;;;;;;5076397;28;20351;-53
2023/05/18 00:40:13;;;;;;;;;;;21.90;86.70;;;;;;5058032;28;20016;-52
2023/05/18 00:42:39;;;;;;;;;;;22.20;86.10;;;;;;5076165;28;19989;-53
2023/05/18 00:45:04;;;;;;;;;;;22.30;85.50;;;;;;5076342;28;19919;-49
2023/05/18 00:47:30;;;;;;;;;;;22.40;85.60;;;;;;5075989;28;19912;-54
2023/05/18 00:49:56;;;;;;;;;;;22.50;84.90;;;;;;5076199;28;19914;-54
2023/05/18 00:52:22;;;;;;;;;;;22.50;84.70;;;;;;5076124;28;19908;-51
2023/05/18 00:54:48;;;;;;;;;;;22.40;84.80;;;;;;5058065;28;19912;-55
2023/05/18 00:57:13;;;;;;;;;;;22.40;84.90;;;;;;5075998;28;19912;-52
2023/05/18 00:59:39;;;;;;;;;;;22.30;85.10;;;;;;5075836;28;19912;-49
2023/05/18 01:02:05;;;;;;;;;;;22.30;85.30;;;;;;5058091;28;20359;-55
2023/05/18 01:04:30;;;;;;;;;;;22.20;85.40;;;;;;5075637;28;19951;-53
2023/05/18 01:06:57;;;;;;;;;;;22.20;85.70;;;;;;5075595;28;19908;-54
2023/05/18 01:09:23;;;;;;;;;;;22.10;85.80;;;;;;5075802;28;19913;-54
2023/05/18 01:11:58;;;;;;;;;;;22.10;86.00;;;;;;5075705;28;19928;-50
2023/05/18 01:14:28;;;;;;;;;;;22.00;86.10;;;;;;5075701;28;19917;-54
2023/05/18 01:17:16;;;;;;;;;;;21.90;86.20;;;;;;5075262;28;19912;-53
2023/05/18 01:19:50;;;;;;;;;;;21.80;86.40;;;;;;5075398;28;20011;-52
2023/05/18 01:22:31;;;;;;;;;;;21.80;86.60;;;;;;5075410;28;19915;-51
2023/05/18 01:24:58;;;;;;;;;;;21.70;87.30;;;;;;5075355;28;20008;-50
2023/05/18 01:27:24;;;;;;;;;;;21.70;86.80;;;;;;5075419;28;19991;-49
2023/05/18 01:29:50;;;;;;;;;;;21.70;86.90;;;;;;5075335;28;19951;-54
2023/05/18 01:32:19;;;;;;;;;;;21.70;86.80;;;;;;5075253;28;20325;-53
2023/05/18 01:34:45;;;;;;;;;;;21.80;86.60;;;;;;5075310;28;19913;-51
2023/05/18 01:37:10;;;;;;;;;;;22.00;86.30;;;;;;5057247;28;19912;-55
2023/05/18 01:39:36;;;;;;;;;;;22.20;85.90;;;;;;5075530;28;19913;-50
2023/05/18 01:42:05;;;;;;;;;;;22.30;85.50;;;;;;5075037;28;19909;-48
2023/05/18 01:44:37;;;;;;;;;;;22.30;85.20;;;;;;5075439;28;19959;-53
2023/05/18 01:47:15;;;;;;;;;;;22.30;85.10;;;;;;5075011;28;19909;-52
2023/05/18 01:50:01;;;;;;;;;;;22.30;85.10;;;;;;5075017;28;19978;-52
2023/05/18 01:52:30;;;;;;;;;;;22.30;85.20;;;;;;5074935;28;19908;-52
2023/05/18 01:54:58;;;;;;;;;;;22.20;85.30;;;;;;5074515;28;19913;-50
2023/05/18 01:57:26;;;;;;;;;;;22.20;85.50;;;;;;5074729;28;19913;-51
2023/05/18 01:59:53;;;;;;;;;;;22.10;85.60;;;;;;5074748;28;19908;-53
2023/05/18 02:02:18;;;;;;;;;;;22.10;85.80;;;;;;5075036;28;19909;-52
2023/05/18 02:04:44;;;;;;;;;;;22.00;86.00;;;;;;5074706;28;19916;-50
2023/05/18 02:07:09;;;;;;;;;;;21.90;86.10;;;;;;5074415;28;19912;-53
2023/05/18 02:09:35;;;;;;;;;;;21.90;86.20;;;;;;5074586;28;20352;-49
2023/05/18 02:12:01;;;;;;;;;;;21.90;86.40;;;;;;5074404;28;20363;-54
2023/05/18 02:14:26;;;;;;;;;;;21.80;86.60;;;;;;5074423;28;19920;-53
2023/05/18 02:16:52;;;;;;;;;;;21.70;86.60;;;;;;5090152;28;19912;-49
2023/05/18 02:19:18;;;;;;;;;;;21.70;86.80;;;;;;5074199;28;20352;-55
2023/05/18 02:21:44;;;;;;;;;;;21.60;86.90;;;;;;5074209;28;19909;-54
2023/05/18 02:24:10;;;;;;;;;;;21.60;87.00;;;;;;5074411;28;19912;-50
2023/05/18 02:26:36;;;;;;;;;;;21.50;87.00;;;;;;5074089;28;19912;-54
2023/05/18 02:29:02;;;;;;;;;;;21.60;87.10;;;;;;5074043;28;19983;-54
2023/05/18 02:31:29;;;;;;;;;;;21.60;87.00;;;;;;5074310;28;19908;-51
2023/05/18 02:33:55;;;;;;;;;;;21.70;86.90;;;;;;5073692;28;19966;-53
2023/05/18 02:36:21;;;;;;;;;;;21.80;86.60;;;;;;5074002;28;19919;-51
2023/05/18 02:38:47;;;;;;;;;;;22.00;86.30;;;;;;5074227;28;20011;-50
2023/05/18 02:41:13;;;;;;;;;;;22.10;86.00;;;;;;5074227;28;19995;-55
2023/05/18 02:43:38;;;;;;;;;;;22.10;85.70;;;;;;5073744;28;20009;-51
2023/05/18 02:46:04;;;;;;;;;;;22.20;85.60;;;;;;5074024;28;19908;-51
2023/05/18 02:48:29;;;;;;;;;;;22.10;85.40;;;;;;5074122;28;19916;-51
2023/05/18 02:50:55;;;;;;;;;;;22.10;85.40;;;;;;5073796;28;19913;-51
2023/05/18 02:53:21;;;;;;;;;;;22.10;85.50;;;;;;5055981;28;20015;-53
2023/05/18 02:55:47;;;;;;;;;;;22.00;85.70;;;;;;5089580;28;19955;-54
2023/05/18 02:58:13;;;;;;;;;;;22.00;85.90;;;;;;5074075;28;20260;-51
2023/05/18 03:00:38;;;;;;;;;;;21.90;85.90;;;;;;5074066;28;19915;-54
2023/05/18 03:03:04;;;;;;;;;;;21.90;86.10;;;;;;5073771;28;19909;-53
2023/05/18 03:05:30;;;;;;;;;;;21.80;86.20;;;;;;5056001;28;19913;-50
2023/05/18 03:07:56;;;;;;;;;;;21.80;86.30;;;;;;5073657;28;19909;-53
2023/05/18 03:10:21;;;;;;;;;;;21.70;86.40;;;;;;5055914;28;19978;-53
2023/05/18 03:12:47;;;;;;;;;;;21.70;86.60;;;;;;5073850;28;20351;-55
2023/05/18 03:15:15;;;;;;;;;;;21.60;86.70;;;;;;5073731;28;19930;-54
2023/05/18 03:17:41;;;;;;;;;;;21.60;86.80;;;;;;5074210;28;19913;-52
2023/05/18 03:20:07;;;;;;;;;;;21.60;87.00;;;;;;5073744;28;20356;-53
2023/05/18 03:22:32;;;;;;;;;;;21.50;87.00;;;;;;5074100;28;19916;-50
2023/05/18 03:24:58;;;;;;;;;;;21.50;87.00;;;;;;5073414;28;19909;-50
2023/05/18 03:27:25;;;;;;;;;;;21.60;87.10;;;;;;5073432;28;19913;-54
2023/05/18 03:29:55;;;;;;;;;;;21.60;87.00;;;;;;5073400;28;19908;-52
2023/05/18 03:32:20;;;;;;;;;;;21.70;86.80;;;;;;5073990;28;19975;-53
2023/05/18 03:34:49;;;;;;;;;;;21.90;86.50;;;;;;5073584;28;19913;-50
2023/05/18 03:37:15;;;;;;;;;;;22.00;86.00;;;;;;5073356;28;19912;-55
2023/05/18 03:39:41;;;;;;;;;;;22.10;85.60;;;;;;5073641;28;20014;-53
2023/05/18 03:42:06;;;;;;;;;;;22.20;85.40;;;;;;5073330;28;19947;-48
2023/05/18 03:44:32;;;;;;;;;;;22.20;85.30;;;;;;5074493;28;19920;-55
2023/05/18 03:46:57;;;;;;;;;;;22.20;85.20;;;;;;5077329;28;19908;-51
2023/05/18 03:49:23;;;;;;;;;;;22.20;85.30;;;;;;5077012;28;19958;-51
2023/05/18 03:51:48;;;;;;;;;;;22.10;85.40;;;;;;5077523;28;20348;-52
2023/05/18 03:54:14;;;;;;;;;;;22.10;85.60;;;;;;5077117;28;19913;-50
2023/05/18 03:56:39;;;;;;;;;;;22.00;85.50;;;;;;5077222;28;19916;-53
2023/05/18 03:59:05;;;;;;;;;;;22.00;85.80;;;;;;5077195;28;19909;-54
2023/05/18 04:01:31;;;;;;;;;;;21.90;85.90;;;;;;5077505;28;19908;-50
2023/05/18 04:03:57;;;;;;;;;;;21.90;86.60;;;;;;5077035;28;19915;-55
2023/05/18 04:06:24;;;;;;;;;;;21.80;86.20;;;;;;5076993;28;19912;-51
2023/05/18 04:08:50;;;;;;;;;;;21.80;86.30;;;;;;5076961;28;19916;-49
2023/05/18 04:11:16;;;;;;;;;;;21.70;86.40;;;;;;5076582;28;19930;-53
2023/05/18 04:13:42;;;;;;;;;;;21.70;86.60;;;;;;5076782;28;20397;-54
2023/05/18 04:16:11;;;;;;;;;;;21.60;86.60;;;;;;5076521;28;19961;-51
2023/05/18 04:18:37;;;;;;;;;;;21.60;86.80;;;;;;5076596;28;19908;-53
2023/05/18 04:21:04;;;;;;;;;;;21.60;86.90;;;;;;5077119;28;19909;-54
2023/05/18 04:23:32;;;;;;;;;;;21.60;87.50;;;;;;5077016;28;19913;-52
2023/05/18 04:25:58;;;;;;;;;;;21.60;87.40;;;;;;5076660;28;19950;-48
2023/05/18 04:28:23;;;;;;;;;;;21.70;86.90;;;;;;5076859;28;19909;-50
2023/05/18 04:30:50;;;;;;;;;;;21.80;86.70;;;;;;5076422;28;19935;-50
2023/05/18 04:33:16;;;;;;;;;;;21.90;86.10;;;;;;5076390;28;19912;-51
2023/05/18 04:35:41;;;;;;;;;;;22.10;85.90;;;;;;5076466;28;20374;-51
2023/05/18 04:38:07;;;;;;;;;;;22.20;85.50;;;;;;5076494;28;20330;-52
2023/05/18 04:40:32;;;;;;;;;;;22.20;85.30;;;;;;5075872;28;19909;-55
2023/05/18 04:42:59;;;;;;;;;;;22.20;85.20;;;;;;5075972;28;20007;-55
2023/05/18 04:45:25;;;;;;;;;;;22.20;85.20;;;;;;5076567;28;19966;-51
2023/05/18 04:47:52;;;;;;;;;;;22.20;85.30;;;;;;5075480;28;20497;-53
2023/05/18 04:50:18;;;;;;;;;;;22.10;85.40;;;;;;5075818;28;19978;-51
2023/05/18 04:52:47;;;;;;;;;;;22.10;85.50;;;;;;5076045;28;19908;-48
2023/05/18 04:55:18;;;;;;;;;;;22.10;85.70;;;;;;5075182;28;19912;-50
2023/05/18 04:57:44;;;;;;;;;;;22.00;85.80;;;;;;5075772;28;19919;-48
2023/05/18 05:00:11;;;;;;;;;;;22.00;86.50;;;;;;5076347;28;20003;-54
2023/05/18 05:02:37;;;;;;;;;;;21.90;86.00;;;;;;5075947;28;19947;-52
2023/05/18 05:05:02;;;;;;;;;;;21.90;86.20;;;;;;5075902;28;19909;-50
2023/05/18 05:07:28;;;;;;;;;;;21.80;86.30;;;;;;5075789;28;19908;-53
2023/05/18 05:09:53;;;;;;;;;;;21.80;86.50;;;;;;5057873;28;19915;-48
2023/05/18 05:12:19;;;;;;;;;;;21.70;86.50;;;;;;5075461;28;19915;-51
2023/05/18 05:14:44;;;;;;;;;;;21.70;86.70;;;;;;5075559;28;19935;-51
2023/05/18 05:17:11;;;;;;;;;;;21.70;86.80;;;;;;5075452;28;20386;-51
2023/05/18 05:19:37;;;;;;;;;;;21.60;86.90;;;;;;5057375;28;20313;-53
2023/05/18 05:22:02;;;;;;;;;;;21.60;87.00;;;;;;5075912;28;20003;-52
2023/05/18 05:24:27;;;;;;;;;;;21.60;86.90;;;;;;5075100;28;19908;-47
2023/05/18 05:26:53;;;;;;;;;;;21.70;86.90;;;;;;5075752;28;19993;-55
2023/05/18 05:29:19;;;;;;;;;;;21.80;86.70;;;;;;5075020;28;19915;-49
2023/05/18 05:31:44;;;;;;;;;;;21.90;86.30;;;;;;5075009;28;19999;-53
2023/05/18 05:34:10;;;;;;;;;;;22.10;86.00;;;;;;5075197;28;20371;-50
2023/05/18 05:36:36;;;;;;;;;;;22.20;85.60;;;;;;5075192;28;20383;-53
2023/05/18 05:39:01;;;;;;;;;;;22.20;85.40;;;;;;5075021;28;19909;-52
2023/05/18 05:41:27;;;;;;;;;;;22.20;85.30;;;;;;5057152;28;20343;-53
2023/05/18 05:43:52;;;;;;;;;;;22.20;85.20;;;;;;5074855;28;19921;-49
2023/05/18 05:46:18;;;;;;;;;;;22.20;85.40;;;;;;5074997;28;19951;-52
2023/05/18 05:48:43;;;;;;;;;;;22.20;85.50;;;;;;5074928;28;19909;-50
2023/05/18 05:51:09;;;;;;;;;;;22.10;85.60;;;;;;5074822;28;20387;-53
2023/05/18 05:53:34;;;;;;;;;;;22.10;85.70;;;;;;5074978;28;19970;-49
2023/05/18 05:56:00;;;;;;;;;;;22.00;85.80;;;;;;5075077;28;19913;-51
2023/05/18 05:58:25;;;;;;;;;;;22.00;86.00;;;;;;5074715;28;20387;-52
2023/05/18 06:00:51;;;;;;;;;;;21.90;86.10;;;;;;5074918;28;19916;-54
2023/05/18 06:03:17;;;;;;;;;;;21.90;86.20;;;;;;5074336;28;19908;-50
2023/05/18 06:05:42;;;;;;;;;;;21.80;86.30;;;;;;5074603;28;20339;-54
2023/05/18 06:08:08;;;;;;;;;;;21.80;86.50;;;;;;5073770;28;19959;-50
2023/05/18 06:10:33;;;;;;;;;;;21.70;86.50;;;;;;5074144;28;19908;-54
2023/05/18 06:12:59;;;;;;;;;;;21.70;86.70;;;;;;5074189;28;19994;-52
2023/05/18 06:15:24;;;;;;;;;;;21.70;86.80;;;;;;5074504;28;20448;-50
2023/05/18 06:17:50;;;;;;;;;;;21.60;86.90;;;;;;5074500;28;19909;-54
2023/05/18 06:20:16;;;;;;;;;;;21.60;87.00;;;;;;5074200;28;19908;-51
2023/05/18 06:22:42;;;;;;;;;;;21.60;87.00;;;;;;5074329;28;19908;-54
2023/05/18 06:25:09;;;;;;;;;;;21.50;87.00;;;;;;5074744;28;19912;-52
2023/05/18 06:27:35;;;;;;;;;;;21.60;87.00;;;;;;5074296;28;20090;-51
2023/05/18 06:30:00;;;;;;;;;;;21.60;86.80;;;;;;5073440;28;20369;-51
2023/05/18 06:32:26;;;;;;;;;;;21.80;86.60;;;;;;5074280;28;19952;-51
2023/05/18 06:34:51;;;;;;;;;;;21.90;86.20;;;;;;5073645;28;19919;-47
2023/05/18 06:37:17;;;;;;;;;;;22.10;85.90;;;;;;5056171;28;19936;-53
2023/05/18 06:39:42;;;;;;;;;;;22.20;85.40;;;;;;5074121;28;19912;-54
2023/05/18 06:42:07;;;;;;;;;;;22.30;85.10;;;;;;5074300;28;19909;-48
2023/05/18 06:44:34;;;;;;;;;;;22.40;84.80;;;;;;5074274;28;19955;-51
2023/05/18 06:47:00;;;;;;;;;;;22.40;84.70;;;;;;5073971;28;19923;-51
2023/05/18 06:49:25;;;;;;;;;;;22.40;84.70;;;;;;5073924;28;20348;-49
2023/05/18 06:51:51;;;;;;;;;;;22.40;84.70;;;;;;5073652;28;19908;-54
2023/05/18 06:54:16;;;;;;;;;;;22.30;84.80;;;;;;5073938;28;19951;-51
2023/05/18 06:56:42;;;;;;;;;;;22.30;85.00;;;;;;5073344;28;19944;-51
2023/05/18 06:59:07;;;;;;;;;;;22.20;85.10;;;;;;5073962;28;19917;-54
2023/05/18 07:01:33;;;;;;;;;;;22.20;85.20;;;;;;5073939;28;19909;-49
2023/05/18 07:03:58;;;;;;;;;;;22.10;85.40;;;;;;5073493;28;19966;-51
2023/05/18 07:06:24;;;;;;;;;;;22.00;86.00;;;;;;5073885;28;19908;-51
2023/05/18 07:08:49;;;;;;;;;;;22.00;85.70;;;;;;5055775;28;19913;-52
2023/05/18 07:11:15;;;;;;;;;;;21.90;85.90;;;;;;5073722;28;19915;-52
2023/05/18 07:13:40;;;;;;;;;;;21.90;85.90;;;;;;5073412;28;20274;-51
2023/05/18 07:16:06;;;;;;;;;;;21.80;86.10;;;;;;5073690;28;19912;-54
2023/05/18 07:18:32;;;;;;;;;;;21.80;86.30;;;;;;5074690;28;19915;-53
2023/05/18 07:20:58;;;;;;;;;;;21.80;86.40;;;;;;5077709;28;19920;-49
2023/05/18 07:23:23;;;;;;;;;;;21.70;86.40;;;;;;5059361;28;19909;-52
2023/05/18 07:25:49;;;;;;;;;;;21.70;86.50;;;;;;5076946;28;20021;-53
2023/05/18 07:28:14;;;;;;;;;;;21.70;86.40;;;;;;5093226;28;20267;-48
2023/05/18 07:30:40;;;;;;;;;;;21.80;86.40;;;;;;5059558;28;19909;-50
2023/05/18 07:33:05;;;;;;;;;;;21.80;86.10;;;;;;5077375;28;19932;-49
2023/05/18 07:35:31;;;;;;;;;;;22.00;86.00;;;;;;5077530;28;19912;-52
2023/05/18 07:37:56;;;;;;;;;;;22.10;85.50;;;;;;5059175;28;19908;-50
2023/05/18 07:40:22;;;;;;;;;;;22.30;85.10;;;;;;5077090;28;19912;-48
2023/05/18 07:42:47;;;;;;;;;;;22.40;84.80;;;;;;5076648;28;20453;-54
2023/05/18 07:45:13;;;;;;;;;;;22.40;85.00;;;;;;5077201;28;19909;-51
2023/05/18 07:47:39;;;;;;;;;;;22.50;84.40;;;;;;5059185;28;20271;-55
2023/05/18 07:50:05;;;;;;;;;;;22.50;84.30;;;;;;5077500;28;19908;-53
2023/05/18 07:52:30;;;;;;;;;;;22.50;84.40;;;;;;5077068;28;20381;-48
2023/05/18 07:54:56;;;;;;;;;;;22.40;84.40;;;;;;5059010;28;20244;-48
2023/05/18 07:57:22;;;;;;;;;;;22.40;84.60;;;;;;5058969;28;19966;-50
2023/05/18 07:59:47;;;;;;;;;;;22.30;84.70;;;;;;5077004;28;19915;-52
2023/05/18 08:02:15;;;;;;;;;;;22.30;85.50;;;;;;5077185;28;19909;-51
2023/05/18 08:04:41;;;;;;;;;;;22.20;85.10;;;;;;5076682;28;20363;-52
2023/05/18 08:07:07;;;;;;;;;;;22.10;85.20;;;;;;5076596;28;19909;-47
2023/05/18 08:09:33;;;;;;;;;;;22.10;85.40;;;;;;5076772;28;19931;-52
2023/05/18 08:11:59;;;;;;;;;;;22.00;85.50;;;;;;5076630;28;20351;-54
2023/05/18 08:14:24;;;;;;;;;;;21.90;85.70;;;;;;5076337;28;19913;-52
2023/05/18 08:16:50;;;;;;;;;;;21.90;85.90;;;;;;5076535;28;19917;-53
2023/05/18 08:19:16;;;;;;;;;;;21.90;85.90;;;;;;5091908;28;19909;-49
2023/05/18 08:21:42;;;;;;;;;;;21.80;86.00;;;;;;5076550;28;19908;-52
2023/05/18 08:24:08;;;;;;;;;;;21.80;86.00;;;;;;5076300;28;19955;-53
2023/05/18 08:26:33;;;;;;;;;;;21.80;86.00;;;;;;5076766;28;20423;-54
2023/05/18 08:28:59;;;;;;;;;;;21.80;85.80;;;;;;5076390;28;19948;-54
2023/05/18 08:31:24;;;;;;;;;;;21.90;85.90;;;;;;5075367;28;19909;-54
2023/05/18 08:33:50;;;;;;;;;;;21.90;85.70;;;;;;5076365;28;20003;-52
2023/05/18 08:36:16;;;;;;;;;;;22.00;85.50;;;;;;5076309;28;20065;-52
2023/05/18 08:38:41;;;;;;;;;;;22.10;85.20;;;;;;5076100;28;19909;-53
2023/05/18 08:41:11;;;;;;;;;;;22.20;84.90;;;;;;5075604;28;19948;-50
2023/05/18 08:43:40;;;;;;;;;;;22.30;84.60;;;;;;5075841;28;20271;-52
2023/05/18 08:46:06;;;;;;;;;;;22.40;84.50;;;;;;5075864;28;19909;-51
2023/05/18 08:48:32;;;;;;;;;;;22.40;84.30;;;;;;5091591;28;19988;-51
2023/05/18 08:51:00;;;;;;;;;;;22.40;84.40;;;;;;5075816;28;19958;-52
2023/05/18 08:53:25;;;;;;;;;;;22.40;84.50;;;;;;5076204;28;20068;-54
2023/05/18 08:55:56;;;;;;;;;;;22.30;84.50;;;;;;5075669;28;20011;-52
2023/05/18 08:58:25;;;;;;;;;;;22.20;84.60;;;;;;5075656;28;19916;-48
2023/05/18 09:00:53;;;;;;;;;;;22.20;85.30;;;;;;5075923;28;19912;-50
2023/05/18 09:03:19;;;;;;;;;;;22.10;84.90;;;;;;5075635;28;19909;-51
2023/05/18 09:05:45;;;;;;;;;;;22.10;85.10;;;;;;5075459;28;19908;-52
2023/05/18 09:08:11;;;;;;;;;;;22.00;85.20;;;;;;5057703;28;19920;-50
2023/05/18 09:10:38;;;;;;;;;;;21.90;85.30;;;;;;5075429;28;19969;-54
2023/05/18 09:13:04;;;;;;;;;;;21.90;85.40;;;;;;5075648;28;20347;-49
2023/05/18 09:15:30;;;;;;;;;;;21.90;85.50;;;;;;5057562;28;19920;-51
2023/05/18 09:17:55;;;;;;;;;;;21.80;85.60;;;;;;5075590;28;20279;-51
2023/05/18 09:20:21;;;;;;;;;;;21.80;85.60;;;;;;5075808;28;19981;-52
2023/05/18 09:22:50;;;;;;;;;;;21.80;85.60;;;;;;5074964;28;19912;-53
2023/05/18 09:25:16;;;;;;;;;;;21.90;85.50;;;;;;5075728;28;19915;-52
2023/05/18 09:27:42;;;;;;;;;;;22.00;85.40;;;;;;5075364;28;19908;-52
2023/05/18 09:30:11;;;;;;;;;;;22.00;85.10;;;;;;5057296;28;19916;-52
2023/05/18 09:32:36;;;;;;;;;;;22.20;84.90;;;;;;5075282;28;20003;-53
2023/05/18 09:35:11;;;;;;;;;;;22.30;84.70;;;;;;5075035;28;19975;-49
2023/05/18 09:37:40;;;;;;;;;;;22.40;84.50;;;;;;5075299;28;19912;-51
2023/05/18 09:40:06;;;;;;;;;;;22.40;84.20;;;;;;5057050;28;19915;-51
2023/05/18 09:42:36;;;;;;;;;;;22.50;84.10;;;;;;5074824;28;19909;-51
2023/05/18 09:45:03;;;;;;;;;;;22.40;84.10;;;;;;5057029;28;20267;-50
2023/05/18 09:47:28;;;;;;;;;;;22.40;84.10;;;;;;5057096;28;19908;-51
2023/05/18 09:49:55;;;;;;;;;;;22.40;84.20;;;;;;5074918;28;19920;-51
2023/05/18 09:52:20;;;;;;;;;;;22.30;84.40;;;;;;5074940;28;19912;-49
2023/05/18 09:54:51;;;;;;;;;;;22.30;84.50;;;;;;5074510;28;19958;-52
2023/05/18 09:57:19;;;;;;;;;;;22.10;84.60;;;;;;5074576;28;20008;-54
2023/05/18 09:59:49;;;;;;;;;;;22.10;84.80;;;;;;5074888;28;19916;-52
2023/05/18 10:02:18;;;;;;;;;;;22.00;85.00;;;;;;5056823;28;20369;-53
2023/05/18 10:04:43;;;;;;;;;;;22.00;85.20;;;;;;5074506;28;19908;-49
2023/05/18 10:07:13;;;;;;;;;;;21.90;85.30;;;;;;5090049;28;19969;-53
2023/05/18 10:09:39;;;;;;;;;;;21.80;85.40;;;;;;5074369;28;19916;-52
2023/05/18 10:12:12;;;;;;;;;;;21.80;86.10;;;;;;5074580;28;19911;-54
2023/05/18 10:14:39;;;;;;;;;;;21.80;85.70;;;;;;5074370;28;19919;-52
2023/05/18 10:17:05;;;;;;;;;;;21.80;85.80;;;;;;5074286;28;19920;-48
2023/05/18 10:19:33;;;;;;;;;;;21.80;85.80;;;;;;5074705;28;19912;-53
2023/05/18 10:22:00;;;;;;;;;;;21.80;85.70;;;;;;5073822;28;19916;-52
2023/05/18 10:24:25;;;;;;;;;;;21.90;85.70;;;;;;5073831;28;19908;-51
2023/05/18 10:26:51;;;;;;;;;;;21.90;85.50;;;;;;5074206;28;19995;-50
2023/05/18 10:29:17;;;;;;;;;;;22.00;85.20;;;;;;5073857;28;20343;-52
2023/05/18 10:31:43;;;;;;;;;;;22.10;85.10;;;;;;5074467;28;19908;-50
2023/05/18 10:34:09;;;;;;;;;;;22.10;84.80;;;;;;5074258;28;19948;-52
2023/05/18 10:36:36;;;;;;;;;;;22.20;84.70;;;;;;5073759;28;19919;-54
2023/05/18 10:39:02;;;;;;;;;;;22.30;84.60;;;;;;5074014;28;19948;-51
2023/05/18 10:41:29;;;;;;;;;;;22.30;84.40;;;;;;5055811;28;19916;-51
2023/05/18 10:44:01;;;;;;;;;;;22.30;84.40;;;;;;5073736;28;19921;-52
2023/05/18 10:46:26;;;;;;;;;;;22.30;84.40;;;;;;5074058;28;19919;-53
2023/05/18 10:48:52;;;;;;;;;;;22.30;85.00;;;;;;5073897;28;19908;-50
2023/05/18 10:51:19;;;;;;;;;;;22.20;84.50;;;;;;5056015;28;20008;-54
2023/05/18 10:53:46;;;;;;;;;;;22.20;84.60;;;;;;5073150;28;19919;-50
2023/05/18 10:56:14;;;;;;;;;;;22.10;84.70;;;;;;5074209;28;19912;-53
2023/05/18 10:58:40;;;;;;;;;;;22.10;84.80;;;;;;5074034;28;19909;-53
2023/05/18 11:01:07;;;;;;;;;;;22.10;85.00;;;;;;5073914;28;20363;-53
2023/05/18 11:03:33;;;;;;;;;;;22.00;85.00;;;;;;5073492;28;20458;-52
2023/05/18 11:06:10;;;;;;;;;;;22.00;85.10;;;;;;5073935;28;19977;-49
2023/05/18 11:08:48;;;;;;;;;;;21.90;85.30;;;;;;5074133;28;19945;-52
2023/05/18 11:11:14;;;;;;;;;;;21.80;85.30;;;;;;5073638;28;19923;-52
2023/05/18 11:13:44;;;;;;;;;;;21.80;85.40;;;;;;5073654;28;19916;-52
2023/05/18 11:16:09;;;;;;;;;;;21.80;85.50;;;;;;5074025;28;19947;-52
2023/05/18 11:18:36;;;;;;;;;;;21.80;85.60;;;;;;5073999;28;19969;-49
2023/05/18 11:21:02;;;;;;;;;;;21.80;85.70;;;;;;5073894;28;19909;-53
2023/05/18 11:23:31;;;;;;;;;;;21.70;85.60;;;;;;5073521;28;19913;-52
2023/05/18 11:26:01;;;;;;;;;;;21.70;85.60;;;;;;5073692;28;19959;-48
2023/05/18 11:28:27;;;;;;;;;;;21.80;85.60;;;;;;5073655;28;20412;-49
2023/05/18 11:30:53;;;;;;;;;;;21.80;85.60;;;;;;5073251;28;19913;-52
2023/05/18 11:33:31;;;;;;;;;;;21.80;85.50;;;;;;5073276;28;19908;-53
2023/05/18 11:36:13;;;;;;;;;;;21.90;85.50;;;;;;5073513;28;19966;-53
2023/05/18 11:38:52;;;;;;;;;;;21.90;85.30;;;;;;5073240;28;19915;-52
2023/05/18 11:41:30;;;;;;;;;;;21.90;85.20;;;;;;5073173;28;19996;-54
2023/05/18 11:44:05;;;;;;;;;;;22.00;85.10;;;;;;5073543;28;20376;-51
2023/05/18 11:46:31;;;;;;;;;;;22.00;85.00;;;;;;5055520;28;19913;-52
2023/05/18 11:49:01;;;;;;;;;;;22.10;84.90;;;;;;5073470;28;19915;-52
2023/05/18 11:51:29;;;;;;;;;;;22.10;84.80;;;;;;5073454;28;19916;-50
2023/05/18 11:53:56;;;;;;;;;;;22.10;84.80;;;;;;5073344;28;20266;-53
2023/05/18 11:56:23;;;;;;;;;;;22.10;84.70;;;;;;5073603;28;19952;-50
2023/05/18 11:59:08;;;;;;;;;;;22.10;84.70;;;;;;5073267;28;20317;-49
2023/05/18 12:01:34;;;;;;;;;;;22.10;84.80;;;;;;5073198;28;19915;-52
2023/05/18 12:03:59;;;;;;;;;;;22.10;84.80;;;;;;5073265;28;20359;-52
2023/05/18 12:06:26;;;;;;;;;;;22.10;84.80;;;;;;5075444;28;19909;-51
2023/05/18 12:08:53;;;;;;;;;;;22.10;84.90;;;;;;5058856;28;19918;-51
2023/05/18 12:11:18;;;;;;;;;;;22.00;84.90;;;;;;5076617;28;19916;-53
2023/05/18 12:13:45;;;;;;;;;;;22.00;85.00;;;;;;5058798;28;19912;-54
2023/05/18 12:16:12;;;;;;;;;;;22.00;85.10;;;;;;5077105;28;19969;-48
2023/05/18 12:18:38;;;;;;;;;;;22.00;85.10;;;;;;5076637;28;19908;-50
2023/05/18 12:21:03;;;;;;;;;;;21.90;85.10;;;;;;5076809;28;19915;-52
2023/05/18 12:23:38;;;;;;;;;;;21.90;85.20;;;;;;5076360;28;19908;-51
2023/05/18 12:26:04;;;;;;;;;;;21.90;85.30;;;;;;5076792;28;19995;-51
2023/05/18 12:28:29;;;;;;;;;;;21.80;85.40;;;;;;5076549;28;20342;-53
2023/05/18 12:30:55;;;;;;;;;;;21.80;85.40;;;;;;5076449;28;19951;-53
2023/05/18 12:33:20;;;;;;;;;;;21.80;85.50;;;;;;5076089;28;19913;-52
2023/05/18 12:35:46;;;;;;;;;;;21.80;85.60;;;;;;5076007;28;20271;-52
2023/05/18 12:38:15;;;;;;;;;;;21.80;85.60;;;;;;5058502;28;20235;-47
2023/05/18 12:40:46;;;;;;;;;;;21.70;85.60;;;;;;5076270;28;19955;-51
2023/05/18 12:43:12;;;;;;;;;;;21.80;85.70;;;;;;5076346;28;19966;-53
2023/05/18 12:45:37;;;;;;;;;;;21.70;85.60;;;;;;5076031;28;19916;-47
2023/05/18 12:48:03;;;;;;;;;;;21.70;85.60;;;;;;5058134;28;19908;-52
2023/05/18 12:50:29;;;;;;;;;;;21.70;85.60;;;;;;5075992;28;19908;-49
2023/05/18 12:52:57;;;;;;;;;;;21.70;85.60;;;;;;5076081;28;19908;-50
2023/05/18 12:55:26;;;;;;;;;;;21.80;85.70;;;;;;5075974;28;19920;-54
2023/05/18 12:58:02;;;;;;;;;;;21.70;85.60;;;;;;5075590;28;20074;-53
2023/05/18 13:00:31;;;;;;;;;;;21.70;85.60;;;;;;5075844;28;19908;-51
2023/05/18 13:03:04;;;;;;;;;;;21.70;85.60;;;;;;5076114;28;19999;-55
2023/05/18 13:05:29;;;;;;;;;;;21.70;85.60;;;;;;5075480;28;19931;-54
2023/05/18 13:07:55;;;;;;;;;;;21.70;85.60;;;;;;5075274;28;20348;-54
2023/05/18 13:10:20;;;;;;;;;;;21.70;85.60;;;;;;5075678;28;20102;-54
2023/05/18 13:12:47;;;;;;;;;;;21.70;85.60;;;;;;5075595;28;20375;-53
2023/05/18 13:15:18;;;;;;;;;;;21.70;85.60;;;;;;5075200;28;19912;-55
2023/05/18 13:17:48;;;;;;;;;;;21.70;85.70;;;;;;5074751;28;19958;-49
2023/05/18 13:20:14;;;;;;;;;;;21.70;85.70;;;;;;5091311;28;19908;-54
2023/05/18 13:22:39;;;;;;;;;;;21.70;85.70;;;;;;5075114;28;19909;-52
2023/05/18 13:25:05;;;;;;;;;;;21.70;85.80;;;;;;5091050;28;19915;-55
2023/05/18 13:27:31;;;;;;;;;;;21.70;86.30;;;;;;5075673;28;19909;-51
2023/05/18 13:29:58;;;;;;;;;;;21.70;85.80;;;;;;5057249;28;20031;-54
2023/05/18 13:32:24;;;;;;;;;;;21.60;85.70;;;;;;5075366;28;19909;-50
2023/05/18 13:34:51;;;;;;;;;;;21.60;85.70;;;;;;5074576;28;19919;-53
2023/05/18 13:37:17;;;;;;;;;;;21.60;85.70;;;;;;5075135;28;20337;-50
2023/05/18 13:39:42;;;;;;;;;;;21.60;85.70;;;;;;5074894;28;19908;-53
2023/05/18 13:42:08;;;;;;;;;;;21.60;85.70;;;;;;5056968;28;19954;-50
2023/05/18 13:44:33;;;;;;;;;;;21.60;85.70;;;;;;5075185;28;19920;-50
2023/05/18 13:46:59;;;;;;;;;;;21.60;85.70;;;;;;5074975;28;19916;-48
2023/05/18 13:49:24;;;;;;;;;;;21.60;85.70;;;;;;5075019;28;19915;-54
2023/05/18 13:51:50;;;;;;;;;;;21.60;85.70;;;;;;5074721;28;19935;-53
2023/05/18 13:54:15;;;;;;;;;;;21.60;85.70;;;;;;5074749;28;19912;-52
2023/05/18 13:56:41;;;;;;;;;;;21.60;85.70;;;;;;5074634;28;19958;-53
2023/05/18 13:59:06;;;;;;;;;;;21.60;85.70;;;;;;5074641;28;19954;-55
2023/05/18 14:01:32;;;;;;;;;;;21.60;85.70;;;;;;5074596;28;19908;-54
2023/05/18 14:03:57;;;;;;;;;;;21.60;85.70;;;;;;5074651;28;19909;-54
2023/05/18 14:06:23;;;;;;;;;;;21.60;85.70;;;;;;5074534;28;20367;-51
2023/05/18 14:08:48;;;;;;;;;;;21.60;85.70;;;;;;5074705;28;19915;-53
2023/05/18 14:11:13;;;;;;;;;;;21.60;85.70;;;;;;5074010;28;19909;-52
2023/05/18 14:13:39;;;;;;;;;;;21.60;85.70;;;;;;5074446;28;19957;-50